Time;durP1;ratioP1;P1;durP2;ratioP2;P2;SDS_P1;SDS_P2;PMS_P1;PMS_P2;Temp;Humidity;BMP_temperature;BMP_pressure;BME280_temperature;BME280_humidity;BME280_pressure;Samples;Min_cycle;Max_cycle;Signal;HPM_P1;HPM_P2
2022/09/01 00:00:56;;;;;;;5.93;1.35;;;17.50;57.80;;;;;;9180714;19;20014;-68
2022/09/01 00:04:02;;;;;;;5.25;1.55;;;17.50;57.80;;;;;;9181627;19;20018;-67
2022/09/01 00:07:08;;;;;;;1.83;1.20;;;17.50;57.90;;;;;;9180539;19;20654;-69
2022/09/01 00:10:13;;;;;;;3.53;1.10;;;17.40;58.00;;;;;;9176618;19;20015;-67
2022/09/01 00:13:21;;;;;;;2.10;1.20;;;17.40;58.00;;;;;;9180970;19;20015;-66
2022/09/01 00:16:26;;;;;;;4.85;1.33;;;17.40;58.10;;;;;;9180028;19;20034;-65
2022/09/01 00:19:32;;;;;;;1.45;1.10;;;17.40;58.70;;;;;;9180964;19;20916;-68
2022/09/01 00:22:37;;;;;;;6.22;1.55;;;17.30;58.10;;;;;;9180895;19;20030;-67
2022/09/01 00:25:42;;;;;;;3.83;1.55;;;17.30;58.20;;;;;;9179741;19;20013;-66
2022/09/01 00:28:50;;;;;;;2.80;1.13;;;17.20;58.20;;;;;;9180275;19;20019;-68
2022/09/01 00:31:55;;;;;;;7.57;1.20;;;17.20;58.40;;;;;;9178184;19;20015;-68
2022/09/01 00:35:00;;;;;;;5.82;1.70;;;17.10;58.30;;;;;;9180156;19;20022;-70
2022/09/01 00:38:05;;;;;;;2.53;1.42;;;17.10;58.40;;;;;;9179715;19;20353;-66
2022/09/01 00:41:11;;;;;;;4.45;1.30;;;17.10;58.50;;;;;;9182490;19;20028;-66
2022/09/01 00:44:25;;;;;;;3.55;1.48;;;17.00;58.50;;;;;;9189147;19;20014;-68
2022/09/01 00:47:34;;;;;;;3.88;1.23;;;17.00;58.60;;;;;;9189237;19;20012;-68
2022/09/01 00:50:40;;;;;;;2.60;1.38;;;17.00;58.60;;;;;;9189449;19;20018;-67
2022/09/01 00:53:46;;;;;;;3.75;1.58;;;17.00;58.60;;;;;;9188877;19;20014;-68
2022/09/01 00:56:52;;;;;;;2.13;1.23;;;16.90;58.70;;;;;;9188499;19;20023;-66
2022/09/01 01:00:10;;;;;;;2.30;1.20;;;16.90;58.70;;;;;;9188712;19;20406;-66
2022/09/01 01:03:16;;;;;;;1.77;1.17;;;16.90;58.80;;;;;;9188718;19;20021;-68
2022/09/01 01:06:26;;;;;;;5.43;1.40;;;16.80;58.70;;;;;;9185784;19;20018;-67
2022/09/01 01:09:40;;;;;;;2.38;1.40;;;16.80;58.70;;;;;;9184267;19;20034;-66
2022/09/01 01:12:45;;;;;;;2.72;1.48;;;16.70;58.70;;;;;;9188385;19;20010;-66
2022/09/01 01:15:53;;;;;;;3.55;1.10;;;16.70;58.70;;;;;;9187802;19;20101;-67
2022/09/01 01:19:01;;;;;;;2.00;1.10;;;16.70;58.80;;;;;;9187429;19;20369;-68
2022/09/01 01:25:38;;;;;;;2.70;0.98;;;16.60;58.90;;;;;;9183736;19;20419;-66
2022/09/01 01:28:44;;;;;;;1.77;1.10;;;16.60;58.90;;;;;;9186050;19;20023;-68
2022/09/01 01:31:52;;;;;;;4.53;1.30;;;16.60;58.90;;;;;;9185786;19;20019;-67
2022/09/01 01:35:01;;;;;;;4.47;1.20;;;16.50;58.90;;;;;;9185682;19;20023;-68
2022/09/01 01:38:08;;;;;;;3.47;1.42;;;16.50;59.00;;;;;;9187093;19;20022;-65
2022/09/01 01:41:18;;;;;;;2.50;1.15;;;16.40;59.00;;;;;;9181092;19;20010;-67
2022/09/01 01:44:27;;;;;;;4.25;1.35;;;16.40;59.00;;;;;;9185413;19;20014;-68
2022/09/01 01:47:36;;;;;;;1.65;1.17;;;16.40;59.10;;;;;;9181386;19;20029;-68
2022/09/01 01:50:41;;;;;;;1.40;1.00;;;16.40;59.00;;;;;;9185072;19;20019;-68
2022/09/01 01:53:51;;;;;;;2.83;1.42;;;16.30;59.10;;;;;;9182825;19;20006;-68
2022/09/01 01:56:59;;;;;;;5.55;1.40;;;16.40;59.20;;;;;;9185229;19;20029;-67
2022/09/01 02:00:06;;;;;;;3.20;1.40;;;16.30;59.20;;;;;;9186648;19;20025;-66
2022/09/01 02:03:17;;;;;;;5.22;1.23;;;16.20;59.20;;;;;;9186722;19;20379;-67
2022/09/01 02:06:24;;;;;;;3.72;1.20;;;16.20;59.20;;;;;;9181937;19;20018;-68
2022/09/01 02:09:32;;;;;;;2.47;1.20;;;16.20;59.20;;;;;;9179985;19;20011;-68
2022/09/01 02:12:42;;;;;;;5.55;1.45;;;16.10;59.30;;;;;;9184099;19;20380;-68
2022/09/01 02:15:49;;;;;;;2.90;1.20;;;16.10;59.30;;;;;;9181668;19;20022;-68
2022/09/01 02:18:54;;;;;;;5.15;1.08;;;16.10;59.30;;;;;;9183996;19;20022;-68
2022/09/01 02:21:59;;;;;;;4.28;1.42;;;16.10;59.40;;;;;;9183857;19;20018;-68
2022/09/01 02:25:04;;;;;;;4.43;1.50;;;16.00;59.40;;;;;;9185925;19;20011;-67
2022/09/01 02:28:14;;;;;;;2.63;1.20;;;16.00;59.40;;;;;;9184736;19;20029;-67
2022/09/01 02:31:21;;;;;;;2.33;1.20;;;15.90;59.60;;;;;;9183516;19;20033;-67
2022/09/01 02:34:28;;;;;;;3.08;1.13;;;15.90;59.50;;;;;;9182090;19;20014;-67
2022/09/01 02:37:33;;;;;;;4.30;1.73;;;15.90;59.60;;;;;;9185092;19;20083;-67
2022/09/01 02:40:39;;;;;;;1.95;1.20;;;15.80;59.60;;;;;;9182981;19;20049;-68
2022/09/01 02:43:47;;;;;;;3.97;1.10;;;15.80;59.60;;;;;;9182869;19;20019;-67
2022/09/01 02:46:53;;;;;;;3.30;1.48;;;15.80;59.70;;;;;;9180359;19;20014;-68
2022/09/01 02:50:00;;;;;;;3.13;1.15;;;15.80;59.70;;;;;;9182502;19;20838;-67
2022/09/01 02:53:08;;;;;;;4.00;1.10;;;15.70;59.70;;;;;;9182100;19;20026;-67
2022/09/01 02:56:17;;;;;;;2.40;1.02;;;15.70;59.80;;;;;;9183936;19;20007;-67
2022/09/01 02:59:27;;;;;;;5.60;1.50;;;15.70;59.80;;;;;;9181851;19;20207;-67
2022/09/01 03:02:35;;;;;;;3.60;1.40;;;15.70;59.90;;;;;;9181011;19;20029;-68
2022/09/01 03:05:41;;;;;;;2.08;1.02;;;15.60;59.80;;;;;;9181513;19;20010;-68
2022/09/01 03:08:47;;;;;;;4.20;1.40;;;15.60;59.90;;;;;;9179009;19;20325;-68
2022/09/01 03:11:54;;;;;;;4.57;1.35;;;15.60;60.00;;;;;;9180894;19;20018;-67
2022/09/01 03:15:05;;;;;;;4.47;1.30;;;15.50;60.00;;;;;;9181201;19;20018;-67
2022/09/01 03:18:15;;;;;;;2.15;1.30;;;15.50;60.10;;;;;;9179702;19;20488;-66
2022/09/01 03:21:20;;;;;;;1.85;0.95;;;15.50;60.10;;;;;;9183134;19;20883;-66
2022/09/01 03:24:25;;;;;;;4.20;1.60;;;15.50;60.10;;;;;;9183014;19;20484;-68
2022/09/01 03:27:30;;;;;;;4.75;1.52;;;15.40;60.10;;;;;;9180680;19;20022;-69
2022/09/01 03:30:40;;;;;;;5.70;1.85;;;15.40;60.10;;;;;;9182534;19;20022;-67
2022/09/01 03:33:45;;;;;;;2.88;1.48;;;15.40;60.30;;;;;;9181734;19;20015;-68
2022/09/01 03:36:57;;;;;;;2.17;1.20;;;15.40;60.30;;;;;;9180450;19;20029;-65
2022/09/01 03:40:05;;;;;;;5.50;1.58;;;15.40;60.30;;;;;;9179917;19;20014;-67
2022/09/01 03:43:13;;;;;;;1.80;1.20;;;15.40;60.40;;;;;;9182685;19;20423;-68
2022/09/01 03:46:23;;;;;;;1.45;1.15;;;15.30;60.30;;;;;;9179749;19;20022;-66
2022/09/01 03:49:29;;;;;;;3.58;1.55;;;15.30;60.40;;;;;;9180315;19;20050;-67
2022/09/01 03:52:35;;;;;;;3.00;1.33;;;15.30;60.50;;;;;;9181834;19;20048;-68
2022/09/01 03:55:40;;;;;;;7.32;1.40;;;15.30;60.50;;;;;;9181769;19;20015;-67
2022/09/01 03:58:46;;;;;;;3.05;1.40;;;15.30;60.50;;;;;;9180118;19;20018;-68
2022/09/01 04:01:56;;;;;;;2.83;1.50;;;15.20;60.50;;;;;;9180218;19;20014;-67
2022/09/01 04:05:01;;;;;;;1.75;1.40;;;15.20;60.60;;;;;;9178741;19;20021;-66
2022/09/01 04:08:13;;;;;;;4.35;1.42;;;15.20;60.60;;;;;;9173296;19;20381;-67
2022/09/01 04:11:22;;;;;;;5.63;1.35;;;15.20;60.70;;;;;;9179248;19;20007;-68
2022/09/01 04:14:29;;;;;;;1.98;1.23;;;15.10;60.70;;;;;;9176336;19;20030;-66
2022/09/01 04:20:57;;;;;;;1.70;1.23;;;15.10;60.80;;;;;;9180957;19;20018;-66
2022/09/01 04:24:04;;;;;;;2.55;1.30;;;15.10;60.80;;;;;;9180720;19;20019;-67
2022/09/01 04:27:10;;;;;;;5.57;1.20;;;15.10;60.90;;;;;;9177232;19;20049;-65
2022/09/01 04:30:15;;;;;;;6.43;1.40;;;15.00;60.80;;;;;;9180041;19;20095;-67
2022/09/01 04:33:33;;;;;;;3.30;1.77;;;15.00;60.80;;;;;;9177382;19;20396;-66
2022/09/01 04:36:40;;;;;;;3.97;1.40;;;15.00;61.00;;;;;;9178450;19;20019;-68
2022/09/01 04:39:51;;;;;;;2.90;1.27;;;14.90;60.90;;;;;;9178185;19;20011;-69
2022/09/01 04:43:00;;;;;;;2.50;1.30;;;14.90;61.10;;;;;;9178135;19;20330;-67
2022/09/01 04:46:05;;;;;;;2.67;1.38;;;14.90;61.00;;;;;;9177021;19;20014;-67
2022/09/01 04:49:18;;;;;;;3.75;1.30;;;14.90;61.10;;;;;;9178550;19;20038;-67
2022/09/01 04:52:24;;;;;;;8.95;1.65;;;14.90;61.20;;;;;;9178208;19;20021;-67
2022/09/01 04:55:29;;;;;;;3.47;1.23;;;14.80;61.10;;;;;;9177870;19;20029;-68
2022/09/01 04:58:35;;;;;;;8.80;1.42;;;14.80;61.20;;;;;;9177795;19;20052;-67
2022/09/01 05:01:45;;;;;;;2.13;1.33;;;14.80;61.40;;;;;;9177473;19;20026;-67
2022/09/01 05:04:56;;;;;;;4.75;1.50;;;14.70;61.30;;;;;;9175968;19;20017;-67
2022/09/01 05:08:01;;;;;;;8.43;2.08;;;14.70;61.40;;;;;;9171128;19;20011;-66
2022/09/01 05:11:08;;;;;;;2.90;1.58;;;14.70;61.40;;;;;;9177950;19;20082;-68
2022/09/01 05:14:17;;;;;;;2.35;1.45;;;14.70;61.50;;;;;;9177048;19;20010;-66
2022/09/01 05:17:24;;;;;;;2.25;1.70;;;14.70;61.50;;;;;;9176712;19;20011;-67
2022/09/01 05:20:34;;;;;;;4.35;1.23;;;14.60;61.50;;;;;;9176398;19;20022;-67
2022/09/01 05:23:39;;;;;;;3.25;1.35;;;14.60;61.60;;;;;;9176423;19;20048;-66
2022/09/01 05:26:46;;;;;;;5.57;2.08;;;14.60;61.70;;;;;;9179877;19;20040;-65
2022/09/01 05:29:52;;;;;;;1.98;1.45;;;14.60;61.70;;;;;;9185294;19;20022;-68
2022/09/01 05:32:56;;;;;;;3.97;1.70;;;14.60;61.80;;;;;;9185256;19;20034;-68
2022/09/01 05:36:07;;;;;;;2.50;1.40;;;14.60;61.90;;;;;;9184738;19;20017;-67
2022/09/01 05:39:13;;;;;;;4.20;1.50;;;14.50;62.00;;;;;;9183073;19;20014;-68
2022/09/01 05:42:18;;;;;;;3.83;1.35;;;14.50;62.00;;;;;;9184285;19;20018;-66
2022/09/01 05:45:25;;;;;;;5.50;1.52;;;14.50;62.00;;;;;;9184077;19;20361;-67
2022/09/01 05:48:34;;;;;;;2.33;1.52;;;14.60;62.20;;;;;;9181240;19;20018;-68
2022/09/01 05:51:43;;;;;;;2.70;1.70;;;14.60;62.20;;;;;;9184131;19;20018;-67
2022/09/01 05:54:58;;;;;;;2.15;1.30;;;14.50;62.30;;;;;;9182886;19;20026;-67
2022/09/01 05:58:05;;;;;;;5.28;2.33;;;14.50;62.30;;;;;;9181719;19;20030;-68
2022/09/01 06:01:11;;;;;;;5.38;1.77;;;14.50;62.40;;;;;;9178668;19;20018;-67
2022/09/01 06:04:16;;;;;;;6.90;1.40;;;14.50;62.50;;;;;;9182744;19;20014;-67
2022/09/01 06:07:27;;;;;;;1.88;1.48;;;14.60;62.50;;;;;;9177600;19;20353;-65
2022/09/01 06:10:36;;;;;;;3.47;1.58;;;14.60;62.70;;;;;;9180725;19;20022;-67
2022/09/01 06:13:41;;;;;;;5.97;1.77;;;14.60;62.70;;;;;;9175757;19;20022;-67
2022/09/01 06:16:47;;;;;;;5.60;1.88;;;14.70;62.80;;;;;;9171716;19;20026;-67
2022/09/01 06:19:54;;;;;;;9.40;2.00;;;14.70;62.90;;;;;;9171644;19;20595;-67
2022/09/01 06:23:02;;;;;;;2.33;1.65;;;14.80;63.00;;;;;;9172632;19;20023;-67
2022/09/01 06:26:08;;;;;;;3.63;1.65;;;14.90;63.10;;;;;;9174440;19;20026;-66
2022/09/01 06:29:14;;;;;;;3.80;1.98;;;15.00;63.00;;;;;;9173933;19;20026;-67
2022/09/01 06:32:27;;;;;;;9.25;1.60;;;15.10;63.10;;;;;;9178674;19;20022;-66
2022/09/01 06:35:35;;;;;;;2.88;1.45;;;15.20;63.10;;;;;;9179145;19;20018;-67
2022/09/01 06:38:42;;;;;;;5.57;1.70;;;15.30;63.10;;;;;;9175427;19;20018;-67
2022/09/01 06:41:51;;;;;;;3.85;2.00;;;15.50;63.10;;;;;;9173768;19;20033;-67
2022/09/01 06:45:01;;;;;;;8.47;1.70;;;15.60;63.10;;;;;;9172066;19;20046;-67
2022/09/01 06:48:06;;;;;;;2.97;1.65;;;15.70;63.00;;;;;;9175426;19;20036;-66
2022/09/01 06:51:13;;;;;;;14.82;1.80;;;15.90;63.00;;;;;;9179598;19;20022;-68
2022/09/01 06:54:26;;;;;;;2.58;1.70;;;16.00;63.00;;;;;;9175927;19;20019;-66
2022/09/01 06:57:31;;;;;;;5.88;2.00;;;16.20;63.00;;;;;;9175285;19;20383;-66
2022/09/01 07:00:56;;;;;;;2.63;1.80;;;16.30;62.90;;;;;;9175992;19;20038;-65
2022/09/01 07:04:02;;;;;;;3.25;1.55;;;16.40;62.70;;;;;;9172861;19;20094;-66
2022/09/01 07:07:21;;;;;;;3.50;1.50;;;16.60;62.70;;;;;;9180110;19;20021;-67
2022/09/01 07:11:08;;;;;;;6.38;1.65;;;16.70;62.60;;;;;;9178929;19;20539;-66
2022/09/01 07:14:33;;;;;;;2.85;1.45;;;16.90;62.50;;;;;;9177578;19;20030;-68
2022/09/01 07:17:59;;;;;;;3.22;1.50;;;17.10;62.40;;;;;;9175942;19;20026;-69
2022/09/01 07:21:07;;;;;;;4.38;1.20;;;17.30;62.30;;;;;;9176385;19;20025;-68
2022/09/01 07:24:34;;;;;;;6.55;1.42;;;17.50;62.30;;;;;;9174369;19;20113;-66
2022/09/01 07:28:18;;;;;;;5.00;2.08;;;17.60;62.10;;;;;;9170448;19;20406;-66
2022/09/01 07:31:33;;;;;;;2.45;1.42;;;17.80;62.00;;;;;;9173768;19;20026;-68
2022/09/01 07:34:56;;;;;;;5.90;1.77;;;17.90;61.90;;;;;;9173781;19;20936;-67
2022/09/01 07:38:08;;;;;;;5.95;2.10;;;18.10;61.80;;;;;;9178859;19;20014;-67
2022/09/01 07:41:34;;;;;;;2.88;1.80;;;18.20;61.70;;;;;;9170681;19;20026;-66
2022/09/01 07:45:27;;;;;;;4.45;1.88;;;18.30;61.50;;;;;;9174517;19;20050;-68
2022/09/01 07:48:38;;;;;;;5.80;1.50;;;18.40;61.40;;;;;;9174272;19;20024;-69
2022/09/01 07:52:06;;;;;;;3.22;1.63;;;18.50;61.30;;;;;;9179880;19;20081;-66
2022/09/01 07:55:15;;;;;;;5.00;1.60;;;18.70;61.40;;;;;;9173033;19;20022;-66
2022/09/01 07:58:22;;;;;;;4.30;1.95;;;18.80;61.30;;;;;;9176957;19;20360;-69
2022/09/01 08:01:33;;;;;;;3.50;1.50;;;18.80;61.20;;;;;;9172792;19;20026;-66
2022/09/01 08:04:39;;;;;;;4.32;1.38;;;18.90;61.20;;;;;;9178165;19;20606;-69
2022/09/01 08:07:47;;;;;;;2.15;1.40;;;19.10;61.20;;;;;;9176042;19;20117;-69
2022/09/01 08:10:58;;;;;;;7.03;1.80;;;19.20;61.20;;;;;;9180189;19;20010;-66
2022/09/01 08:14:10;;;;;;;4.18;1.50;;;19.30;61.10;;;;;;9177479;19;20018;-68
2022/09/01 08:17:18;;;;;;;5.32;1.75;;;19.50;61.10;;;;;;9177471;19;20048;-67
2022/09/01 08:20:48;;;;;;;3.25;1.52;;;19.60;60.90;;;;;;9178541;19;20539;-67
2022/09/01 08:24:09;;;;;;;1.88;1.20;;;19.80;60.80;;;;;;9174627;19;20022;-68
2022/09/01 08:27:14;;;;;;;3.85;1.20;;;20.00;60.60;;;;;;9171541;19;20366;-67
2022/09/01 08:30:19;;;;;;;5.82;1.40;;;20.20;61.10;;;;;;9168694;19;20023;-66
2022/09/01 08:33:29;;;;;;;4.72;1.33;;;20.50;60.40;;;;;;9175902;19;20064;-68
2022/09/01 08:36:35;;;;;;;5.03;1.10;;;20.70;60.10;;;;;;9173919;19;20029;-68
2022/09/01 08:39:41;;;;;;;2.63;1.05;;;21.00;60.00;;;;;;9170691;19;20022;-68
2022/09/01 08:42:58;;;;;;;2.63;1.13;;;21.20;59.70;;;;;;9173105;19;20022;-68
2022/09/01 08:46:10;;;;;;;7.28;1.20;;;21.50;59.40;;;;;;9172336;19;20010;-68
2022/09/01 08:49:23;;;;;;;2.95;0.85;;;21.70;59.10;;;;;;9171052;19;20023;-70
2022/09/01 08:52:46;;;;;;;1.33;0.85;;;21.90;58.80;;;;;;9174926;19;20451;-69
2022/09/01 08:55:56;;;;;;;2.60;1.02;;;22.20;58.60;;;;;;9174185;19;20019;-69
2022/09/01 08:59:02;;;;;;;3.47;1.65;;;22.40;58.40;;;;;;9177356;19;20393;-69
2022/09/01 09:02:44;;;;;;;3.95;1.10;;;22.70;58.80;;;;;;9178465;19;20038;-69
2022/09/01 09:06:06;;;;;;;2.53;0.90;;;23.00;57.80;;;;;;9182163;19;20027;-67
2022/09/01 09:09:12;;;;;;;7.82;1.60;;;23.20;57.40;;;;;;9181139;19;20025;-67
2022/09/01 09:12:33;;;;;;;5.72;1.10;;;23.40;57.30;;;;;;9186237;19;20014;-67
2022/09/01 09:15:45;;;;;;;2.05;0.88;;;23.60;56.90;;;;;;9182343;19;20022;-67
2022/09/01 09:18:53;;;;;;;2.47;0.90;;;23.80;56.80;;;;;;9185514;19;20026;-67
2022/09/01 09:22:05;;;;;;;3.15;1.35;;;24.00;56.50;;;;;;9185597;19;20022;-66
2022/09/01 09:25:13;;;;;;;3.65;1.13;;;24.20;56.20;;;;;;9184872;19;20078;-69
2022/09/01 09:28:23;;;;;;;9.57;1.10;;;24.40;56.00;;;;;;9186115;19;20014;-68
2022/09/01 09:31:33;;;;;;;3.03;0.90;;;24.60;55.70;;;;;;9187551;19;20803;-67
2022/09/01 09:34:42;;;;;;;1.90;0.77;;;24.80;55.40;;;;;;9187326;19;20006;-68
2022/09/01 09:37:50;;;;;;;1.52;0.60;;;24.90;55.20;;;;;;9184226;19;20026;-69
2022/09/01 09:41:00;;;;;;;1.48;0.75;;;25.10;54.80;;;;;;9185116;19;20086;-68
2022/09/01 09:44:28;;;;;;;3.20;0.98;;;25.20;54.50;;;;;;9187248;19;20010;-68
2022/09/01 09:47:39;;;;;;;0.98;0.60;;;25.40;54.30;;;;;;9186434;19;20021;-69
2022/09/01 09:50:48;;;;;;;0.68;0.55;;;25.50;53.90;;;;;;9183500;19;20089;-69
2022/09/01 09:54:12;;;;;;;1.88;0.68;;;25.60;53.80;;;;;;9182919;19;20487;-69
2022/09/01 09:57:19;;;;;;;2.38;0.77;;;25.70;53.90;;;;;;9183556;19;20369;-70
2022/09/01 10:00:28;;;;;;;1.45;0.77;;;25.90;53.50;;;;;;9180089;19;20027;-70
2022/09/01 10:03:44;;;;;;;2.47;0.80;;;26.00;53.10;;;;;;9183690;19;20029;-69
2022/09/01 10:06:50;;;;;;;6.05;0.90;;;26.10;52.60;;;;;;9181790;19;20037;-69
2022/09/01 10:10:00;;;;;;;1.35;0.65;;;26.20;52.50;;;;;;9175383;19;20026;-69
2022/09/01 10:13:05;;;;;;;4.20;1.08;;;26.30;52.20;;;;;;9177177;19;20029;-69
2022/09/01 10:16:20;;;;;;;5.30;1.30;;;26.30;52.00;;;;;;9181716;19;20515;-69
2022/09/01 10:19:29;;;;;;;3.97;0.68;;;26.40;51.50;;;;;;9183516;19;20058;-70
2022/09/01 10:22:40;;;;;;;1.27;0.70;;;26.50;51.50;;;;;;9179725;19;20018;-68
2022/09/01 10:25:53;;;;;;;0.88;0.63;;;26.50;51.30;;;;;;9182407;19;20015;-68
2022/09/01 10:29:02;;;;;;;8.38;0.90;;;26.60;51.10;;;;;;9179620;19;20018;-67
2022/09/01 10:32:12;;;;;;;11.98;1.15;;;26.60;50.90;;;;;;9178743;19;20026;-69
2022/09/01 10:35:41;;;;;;;2.78;0.75;;;26.80;50.70;;;;;;9180730;19;20018;-68
2022/09/01 10:38:47;;;;;;;6.82;0.82;;;26.80;50.60;;;;;;9177280;19;20025;-69
2022/09/01 10:42:18;;;;;;;2.78;0.55;;;26.90;50.30;;;;;;9179212;19;20014;-72
2022/09/01 10:45:34;;;;;;;0.98;0.60;;;27.00;50.00;;;;;;9180693;19;20029;-72
2022/09/01 10:48:41;;;;;;;1.77;0.80;;;27.10;49.50;;;;;;9177463;19;20018;-72
2022/09/01 10:51:57;;;;;;;3.60;0.50;;;27.00;49.60;;;;;;9180549;19;20010;-70
2022/09/01 10:55:15;;;;;;;1.25;0.70;;;26.90;49.30;;;;;;9180994;19;20021;-71
2022/09/01 10:58:44;;;;;;;0.98;0.60;;;26.90;49.10;;;;;;9175328;19;20025;-67
2022/09/01 11:02:16;;;;;;;4.78;0.63;;;26.80;48.70;;;;;;9181223;19;20019;-69
2022/09/01 11:06:02;;;;;;;3.33;0.90;;;26.80;48.80;;;;;;9182164;19;20018;-68
2022/09/01 11:09:25;;;;;;;3.33;0.60;;;26.80;48.50;;;;;;9180067;19;20017;-67
2022/09/01 11:12:48;;;;;;;1.90;0.90;;;26.70;48.50;;;;;;9183412;19;20018;-68
2022/09/01 11:15:57;;;;;;;2.42;0.60;;;26.60;48.30;;;;;;9183084;19;20030;-66
2022/09/01 11:19:33;;;;;;;2.80;0.80;;;26.50;48.40;;;;;;9183935;19;20012;-67
2022/09/01 11:22:41;;;;;;;2.17;1.17;;;26.40;48.00;;;;;;9183284;19;20017;-67
2022/09/01 11:25:47;;;;;;;4.90;0.70;;;26.40;48.30;;;;;;9182706;19;20542;-67
2022/09/01 11:29:54;;;;;;;2.90;0.68;;;26.30;48.10;;;;;;9183339;19;20094;-68
2022/09/01 11:33:14;;;;;;;5.53;0.80;;;26.30;47.80;;;;;;9179191;19;20102;-67
2022/09/01 11:36:30;;;;;;;1.30;1.00;;;26.30;47.90;;;;;;9174151;19;20025;-70
2022/09/01 11:39:42;;;;;;;3.53;0.63;;;26.40;47.70;;;;;;9172281;19;20022;-67
2022/09/01 11:42:47;;;;;;;3.53;0.75;;;26.50;47.60;;;;;;9171132;19;20046;-70
2022/09/01 11:46:03;;;;;;;1.60;0.90;;;26.60;47.60;;;;;;9173871;19;20023;-69
2022/09/01 11:49:33;;;;;;;2.15;0.70;;;26.80;47.20;;;;;;9176135;19;20025;-71
2022/09/01 11:52:40;;;;;;;2.28;1.00;;;26.90;46.70;;;;;;9172115;19;20044;-72
2022/09/01 11:55:47;;;;;;;4.43;0.80;;;27.00;47.00;;;;;;9180056;19;20034;-69
2022/09/01 11:58:53;;;;;;;0.50;0.50;;;27.10;46.70;;;;;;9179287;19;20014;-70
2022/09/01 12:01:59;;;;;;;1.25;0.85;;;27.20;46.50;;;;;;9168822;19;20015;-68
2022/09/01 12:05:29;;;;;;;0.50;0.50;;;27.30;46.30;;;;;;9168822;19;20013;-68
2022/09/01 12:08:37;;;;;;;3.40;1.13;;;27.30;45.70;;;;;;9167380;19;20018;-71
2022/09/01 12:11:43;;;;;;;1.08;0.75;;;27.30;46.00;;;;;;9171415;19;20022;-69
2022/09/01 12:14:57;;;;;;;2.10;0.77;;;27.40;45.90;;;;;;9174634;19;20516;-69
2022/09/01 12:18:21;;;;;;;2.40;0.80;;;27.30;45.40;;;;;;9172695;19;20057;-68
2022/09/01 12:21:32;;;;;;;2.55;0.70;;;27.30;45.50;;;;;;9175384;19;20015;-70
2022/09/01 12:24:37;;;;;;;1.67;0.93;;;27.40;45.50;;;;;;9170194;19;20044;-70
2022/09/01 12:27:42;;;;;;;2.08;0.70;;;27.40;45.50;;;;;;9169340;19;20011;-69
2022/09/01 12:30:48;;;;;;;1.30;0.75;;;27.50;45.50;;;;;;9168112;19;20025;-71
2022/09/01 12:33:56;;;;;;;1.67;0.70;;;27.60;45.40;;;;;;9176360;19;20010;-70
2022/09/01 12:37:21;;;;;;;0.98;0.70;;;27.70;45.30;;;;;;9173622;19;20018;-68
2022/09/01 12:40:33;;;;;;;7.05;0.73;;;27.70;45.40;;;;;;9172769;19;20019;-72
2022/09/01 12:43:40;;;;;;;3.53;0.93;;;27.80;45.00;;;;;;9179249;19;20014;-71
2022/09/01 12:46:47;;;;;;;2.00;0.70;;;27.80;44.80;;;;;;9178393;19;20018;-72
2022/09/01 12:49:52;;;;;;;3.80;0.70;;;27.80;44.70;;;;;;9172303;19;20754;-71
2022/09/01 12:53:04;;;;;;;2.67;0.60;;;27.90;44.70;;;;;;9169477;19;20567;-72
2022/09/01 12:56:23;;;;;;;1.60;0.50;;;27.90;44.40;;;;;;9170156;19;20110;-68
2022/09/01 12:59:28;;;;;;;1.10;0.77;;;27.90;44.10;;;;;;9169628;19;20022;-72
2022/09/01 13:02:43;;;;;;;1.77;0.73;;;27.90;44.30;;;;;;9170046;19;20392;-71
2022/09/01 13:05:51;;;;;;;6.53;0.88;;;27.90;44.10;;;;;;9169522;19;20077;-68
2022/09/01 13:08:59;;;;;;;3.78;0.90;;;27.80;43.90;;;;;;9164558;19;20048;-71
2022/09/01 13:12:28;;;;;;;1.20;0.73;;;27.70;43.80;;;;;;9169224;19;20932;-69
2022/09/01 13:15:33;;;;;;;3.13;0.75;;;27.60;43.60;;;;;;9168050;19;20023;-69
2022/09/01 13:18:38;;;;;;;1.38;0.70;;;27.50;43.90;;;;;;9168830;19;20014;-69
2022/09/01 13:22:03;;;;;;;2.75;0.77;;;27.50;43.90;;;;;;9167811;19;20038;-69
2022/09/01 13:25:12;;;;;;;0.88;0.57;;;27.50;44.30;;;;;;9167977;19;20030;-73
2022/09/01 13:28:19;;;;;;;1.10;0.63;;;27.50;43.80;;;;;;9167973;19;20026;-71
2022/09/01 13:31:24;;;;;;;3.38;0.90;;;27.50;43.70;;;;;;9171556;19;20033;-70
2022/09/01 13:34:33;;;;;;;5.93;0.80;;;27.60;43.70;;;;;;9173802;19;20590;-68
2022/09/01 13:37:42;;;;;;;3.08;0.70;;;27.50;43.50;;;;;;9168281;19;20086;-71
2022/09/01 13:40:52;;;;;;;2.22;0.88;;;27.60;43.50;;;;;;9172925;19;20015;-70
2022/09/01 13:43:57;;;;;;;1.20;0.70;;;27.60;43.20;;;;;;9177709;19;20839;-69
2022/09/01 13:47:02;;;;;;;6.60;0.75;;;27.50;43.20;;;;;;9177757;19;20015;-70
2022/09/01 13:50:28;;;;;;;0.85;0.60;;;27.50;43.20;;;;;;9186466;19;20011;-69
2022/09/01 13:53:53;;;;;;;1.05;0.60;;;27.50;43.20;;;;;;9181224;19;20046;-70
2022/09/01 13:57:01;;;;;;;2.90;0.80;;;27.40;43.10;;;;;;9180217;19;20059;-72
2022/09/01 14:00:09;;;;;;;2.75;0.70;;;27.30;42.90;;;;;;9181200;19;20033;-71
2022/09/01 14:03:17;;;;;;;1.95;0.50;;;27.30;42.90;;;;;;9181972;19;20021;-70
2022/09/01 14:06:22;;;;;;;4.82;0.55;;;27.30;42.80;;;;;;9183725;19;20036;-69
2022/09/01 14:09:27;;;;;;;1.92;0.90;;;27.20;42.80;;;;;;9174790;19;20027;-72
2022/09/01 14:12:36;;;;;;;2.70;0.70;;;27.10;42.70;;;;;;9170262;19;20022;-69
2022/09/01 14:15:42;;;;;;;6.13;0.75;;;27.10;42.70;;;;;;9177661;19;20023;-73
2022/09/01 14:18:47;;;;;;;1.10;0.70;;;27.00;42.70;;;;;;9180606;19;20007;-70
2022/09/01 14:21:52;;;;;;;1.38;0.70;;;27.00;42.70;;;;;;9175836;19;20019;-71
2022/09/01 14:24:57;;;;;;;0.93;0.60;;;27.00;42.60;;;;;;9178420;19;20029;-70
2022/09/01 14:28:06;;;;;;;1.33;0.52;;;26.80;42.40;;;;;;9173179;19;20025;-71
2022/09/01 14:31:12;;;;;;;2.00;1.08;;;26.80;42.40;;;;;;9173231;19;20018;-68
2022/09/01 14:34:17;;;;;;;2.40;0.60;;;26.70;42.40;;;;;;9173504;19;20018;-71
2022/09/01 14:37:23;;;;;;;3.50;0.60;;;26.60;42.40;;;;;;9174288;19;20022;-70
2022/09/01 14:40:28;;;;;;;1.80;0.60;;;26.60;42.50;;;;;;9176302;19;20022;-70
2022/09/01 14:43:35;;;;;;;1.25;0.60;;;26.50;42.40;;;;;;9174080;19;20018;-68
2022/09/01 14:46:40;;;;;;;2.15;0.70;;;26.50;42.40;;;;;;9173545;19;20022;-70
2022/09/01 14:49:46;;;;;;;1.70;0.70;;;26.50;42.50;;;;;;9175928;19;20409;-72
2022/09/01 14:52:52;;;;;;;1.75;0.57;;;26.50;42.40;;;;;;9169846;19;20022;-69
2022/09/01 14:55:57;;;;;;;6.88;1.00;;;26.40;42.40;;;;;;9177605;19;20022;-70
2022/09/01 14:59:05;;;;;;;0.77;0.50;;;26.50;42.50;;;;;;9176090;19;20364;-72
2022/09/01 15:02:10;;;;;;;1.50;0.70;;;26.50;42.40;;;;;;9173041;19;20036;-69
2022/09/01 15:05:16;;;;;;;6.70;0.70;;;26.50;42.50;;;;;;9173626;19;20043;-68
2022/09/01 15:08:22;;;;;;;2.40;0.82;;;26.50;42.40;;;;;;9168839;19;20468;-68
2022/09/01 15:11:27;;;;;;;6.80;0.88;;;26.50;42.40;;;;;;9171223;19;20022;-68
2022/09/01 15:14:36;;;;;;;4.93;0.63;;;26.50;42.40;;;;;;9173017;19;20377;-69
2022/09/01 15:17:41;;;;;;;4.35;0.73;;;26.40;42.20;;;;;;9172684;19;20364;-68
2022/09/01 15:20:50;;;;;;;2.25;0.65;;;26.40;42.30;;;;;;9172604;19;20017;-68
2022/09/01 15:23:56;;;;;;;2.20;0.60;;;26.30;42.20;;;;;;9171764;19;20680;-69
2022/09/01 15:27:01;;;;;;;1.35;0.80;;;26.30;42.20;;;;;;9170092;19;20055;-68
2022/09/01 15:30:13;;;;;;;2.95;0.80;;;26.30;42.20;;;;;;9170091;19;20486;-70
2022/09/01 15:33:18;;;;;;;1.58;0.80;;;26.30;42.20;;;;;;9172106;19;20018;-69
2022/09/01 15:36:27;;;;;;;4.43;0.95;;;26.20;42.10;;;;;;9176150;19;20022;-70
2022/09/01 15:39:33;;;;;;;2.38;1.00;;;26.20;42.20;;;;;;9174544;19;20810;-69
2022/09/01 15:42:42;;;;;;;2.35;1.13;;;26.10;42.20;;;;;;9169235;19;20042;-69
2022/09/01 15:45:50;;;;;;;1.67;0.80;;;26.10;42.90;;;;;;9169043;19;20074;-72
2022/09/01 15:48:57;;;;;;;3.17;1.08;;;26.00;42.20;;;;;;9173445;19;20776;-67
2022/09/01 15:52:02;;;;;;;2.30;0.50;;;26.00;42.20;;;;;;9171167;19;20052;-69
2022/09/01 15:55:08;;;;;;;2.60;0.60;;;26.00;42.30;;;;;;9173006;19;20022;-68
2022/09/01 15:58:15;;;;;;;4.38;0.73;;;26.00;42.30;;;;;;9175032;19;20018;-68
2022/09/01 16:01:22;;;;;;;2.53;0.60;;;26.00;42.30;;;;;;9171206;19;20353;-70
2022/09/01 16:04:28;;;;;;;5.97;0.57;;;25.90;42.20;;;;;;9169961;19;20014;-68
2022/09/01 16:07:33;;;;;;;8.82;1.08;;;25.90;42.30;;;;;;9170502;19;20021;-69
2022/09/01 16:10:40;;;;;;;1.20;0.75;;;25.90;42.30;;;;;;9167316;19;20022;-70
2022/09/01 16:13:46;;;;;;;1.52;0.60;;;25.80;42.20;;;;;;9169535;19;20478;-68
2022/09/01 16:17:02;;;;;;;2.75;0.68;;;25.80;42.30;;;;;;9169277;19;20038;-69
2022/09/01 16:20:12;;;;;;;9.38;0.40;;;25.70;42.20;;;;;;9169913;19;20546;-68
2022/09/01 16:23:19;;;;;;;2.05;0.73;;;25.70;42.20;;;;;;9173480;19;20022;-72
2022/09/01 16:26:25;;;;;;;2.38;0.80;;;25.60;42.20;;;;;;9173068;19;20082;-71
2022/09/01 16:29:36;;;;;;;1.30;0.52;;;25.50;42.20;;;;;;9175521;19;20026;-69
2022/09/01 16:32:50;;;;;;;1.67;0.60;;;25.50;42.30;;;;;;9173719;19;20026;-70
2022/09/01 16:36:16;;;;;;;7.85;0.80;;;25.40;42.20;;;;;;9176710;19;20048;-69
2022/09/01 16:39:29;;;;;;;1.27;0.70;;;25.30;42.00;;;;;;9174866;19;20089;-69